Time;durP1;ratioP1;P1;durP2;ratioP2;P2;SDS_P1;SDS_P2;PMS_P1;PMS_P2;Temp;Humidity;BMP_temperature;BMP_pressure;BME280_temperature;BME280_humidity;BME280_pressure;Samples;Min_cycle;Max_cycle;Signal;HPM_P1;HPM_P2
2022/09/08 00:01:23;;;;;;;12.23;4.25;;;;;;;16.33;61.05;94270.56;5005684;28;20023;-77
2022/09/08 00:03:49;;;;;;;11.38;4.90;;;;;;;16.25;61.09;94261.47;5005458;28;20331;-77
2022/09/08 00:06:17;;;;;;;10.02;4.30;;;;;;;16.22;61.81;94279.09;5005602;28;20030;-77
2022/09/08 00:08:46;;;;;;;8.25;4.40;;;;;;;16.19;62.40;94271.69;5005408;28;20023;-77
2022/09/08 00:11:23;;;;;;;8.13;4.07;;;;;;;16.19;62.67;94276.28;5005440;28;20340;-75
2022/09/08 00:13:49;;;;;;;7.30;4.35;;;;;;;16.14;62.92;94274.63;5005384;28;20093;-77
2022/09/08 00:16:18;;;;;;;10.25;4.47;;;;;;;16.14;63.03;94273.81;5005300;28;20033;-77
2022/09/08 00:18:45;;;;;;;6.95;4.75;;;;;;;16.05;63.38;94274.72;5005199;28;20026;-77
2022/09/08 00:21:10;;;;;;;9.10;4.32;;;;;;;16.03;63.60;94278.88;5005088;28;20018;-76
2022/09/08 00:23:36;;;;;;;6.63;4.28;;;;;;;16.06;63.33;94278.22;5005340;28;20049;-76
2022/09/08 00:26:02;;;;;;;7.82;4.65;;;;;;;16.03;63.67;94274.25;5005136;28;20221;-76
2022/09/08 00:28:29;;;;;;;10.20;4.15;;;;;;;16.01;63.96;94275.72;5005069;28;20123;-75
2022/09/08 00:30:54;;;;;;;6.28;4.28;;;;;;;15.95;64.01;94272.47;5004950;28;20026;-76
2022/09/08 00:33:21;;;;;;;6.93;4.65;;;;;;;15.97;64.37;94269.47;5020235;28;20088;-76
2022/09/08 00:35:51;;;;;;;7.28;4.55;;;;;;;15.93;64.34;94265.88;5004934;28;20033;-76
2022/09/08 00:38:19;;;;;;;5.78;4.60;;;;;;;15.86;64.56;94274.50;5004943;28;20033;-76
2022/09/08 00:40:46;;;;;;;8.15;4.65;;;;;;;15.87;64.47;94273.38;5004880;28;20057;-76
2022/09/08 00:43:34;;;;;;;6.60;4.30;;;;;;;15.88;64.48;94269.59;5004886;28;20030;-76
2022/09/08 00:46:14;;;;;;;6.22;4.28;;;;;;;15.85;64.45;94272.94;5003760;28;20157;-75
2022/09/08 00:48:52;;;;;;;5.82;4.53;;;;;;;15.82;64.62;94271.69;5004517;28;20361;-76
2022/09/08 00:51:19;;;;;;;5.68;4.28;;;;;;;15.81;64.23;94275.53;5004696;28;20061;-76
2022/09/08 00:53:47;;;;;;;8.80;4.47;;;;;;;15.78;64.28;94281.56;5004450;28;20057;-76
2022/09/08 00:56:13;;;;;;;7.30;5.07;;;;;;;15.78;64.54;94275.41;5004599;28;20018;-75
2022/09/08 00:58:40;;;;;;;9.80;4.88;;;;;;;15.75;65.07;94287.63;5004395;28;20227;-76
2022/09/08 01:01:06;;;;;;;6.35;4.22;;;;;;;15.72;64.53;94277.53;5004539;28;20042;-75
2022/09/08 01:03:32;;;;;;;9.50;4.88;;;;;;;15.69;64.63;94272.00;5004292;28;20022;-76
2022/09/08 01:06:17;;;;;;;6.50;4.22;;;;;;;15.71;65.11;94286.66;5004522;28;20037;-76
2022/09/08 01:14:56;;;;;;;10.30;5.38;;;;;;;15.63;63.99;94271.41;5004331;28;20065;-76
2022/09/08 01:17:28;;;;;;;8.52;4.45;;;;;;;15.62;64.17;94262.59;5004304;28;20026;-76
2022/09/08 01:19:54;;;;;;;6.00;4.17;;;;;;;15.65;64.76;94261.13;5004093;28;20057;-76
2022/09/08 01:22:41;;;;;;;7.50;3.88;;;;;;;15.64;65.05;94264.94;5004148;28;20034;-77
2022/09/08 01:25:31;;;;;;;8.20;4.40;;;;;;;15.61;65.26;94270.97;5004011;28;20093;-77
2022/09/08 01:28:17;;;;;;;7.45;4.45;;;;;;;15.59;64.77;94265.16;5003978;28;20110;-77
2022/09/08 01:30:46;;;;;;;10.50;5.07;;;;;;;15.57;64.84;94270.06;5003829;28;20053;-76
2022/09/08 01:33:13;;;;;;;9.70;4.90;;;;;;;15.57;64.53;94264.69;5003878;28;20026;-76
2022/09/08 01:35:39;;;;;;;12.40;5.30;;;;;;;15.56;64.32;94279.25;5003797;28;20022;-76
2022/09/08 01:38:09;;;;;;;12.48;5.15;;;;;;;15.53;64.66;94277.22;5002509;28;20327;-76
2022/09/08 01:40:36;;;;;;;8.77;5.15;;;;;;;15.48;64.56;94275.56;5003568;28;20022;-76
2022/09/08 01:43:02;;;;;;;7.72;4.38;;;;;;;15.43;64.81;94275.78;5003926;28;20038;-77
2022/09/08 01:45:27;;;;;;;8.57;4.50;;;;;;;15.37;64.96;94277.91;5003309;28;20235;-76
2022/09/08 01:47:53;;;;;;;8.40;4.60;;;;;;;15.25;65.69;94272.50;5003394;28;20053;-77
2022/09/08 01:50:19;;;;;;;7.32;5.00;;;;;;;15.19;65.96;94271.13;5003536;28;20190;-77
2022/09/08 01:52:45;;;;;;;11.52;5.07;;;;;;;15.18;66.30;94275.72;5003515;28;20031;-77
2022/09/08 01:55:11;;;;;;;7.13;5.00;;;;;;;15.20;66.94;94272.69;5003351;28;20044;-76
2022/09/08 01:57:36;;;;;;;9.40;5.65;;;;;;;15.21;66.48;94275.06;5003307;28;20077;-76
2022/09/08 02:00:04;;;;;;;7.72;5.28;;;;;;;15.25;66.66;94267.13;5003178;28;20026;-76
2022/09/08 02:02:29;;;;;;;10.70;5.70;;;;;;;15.27;66.90;94262.22;5003217;28;20081;-76
2022/09/08 02:04:55;;;;;;;7.82;5.00;;;;;;;15.28;66.70;94261.06;5002215;28;20076;-76
2022/09/08 02:07:20;;;;;;;9.68;5.63;;;;;;;15.32;66.67;94266.56;5003414;28;20097;-76
2022/09/08 02:09:46;;;;;;;11.00;5.82;;;;;;;15.32;66.58;94264.66;5003102;28;20030;-77
2022/09/08 02:12:12;;;;;;;8.63;5.47;;;;;;;15.28;66.70;94263.75;5003291;28;20029;-77
2022/09/08 02:14:37;;;;;;;14.23;5.47;;;;;;;15.24;66.82;94254.81;5003277;28;20052;-77
2022/09/08 02:17:03;;;;;;;11.27;5.68;;;;;;;15.22;67.01;94248.97;5003187;28;20097;-77
2022/09/08 02:19:28;;;;;;;8.23;5.28;;;;;;;15.21;67.55;94255.47;5003056;28;20076;-76
2022/09/08 02:21:54;;;;;;;8.45;5.10;;;;;;;15.22;67.66;94251.66;5003040;28;20029;-74
2022/09/08 02:24:20;;;;;;;7.10;5.43;;;;;;;15.18;67.76;94259.63;5003357;28;20383;-76
2022/09/08 02:26:45;;;;;;;9.80;4.95;;;;;;;15.17;67.54;94257.25;5002966;28;20109;-76
2022/09/08 02:29:11;;;;;;;10.30;5.40;;;;;;;15.11;67.60;94258.59;5003120;28;20022;-76
2022/09/08 02:31:37;;;;;;;9.25;4.85;;;;;;;15.09;67.69;94255.44;5002895;28;20048;-76
2022/09/08 02:34:04;;;;;;;6.68;4.55;;;;;;;15.08;67.52;94253.88;5002855;28;20320;-76
2022/09/08 02:36:29;;;;;;;8.70;4.80;;;;;;;15.01;67.71;94251.72;5003034;28;20049;-76
2022/09/08 02:38:56;;;;;;;9.02;5.28;;;;;;;14.99;68.13;94246.69;5002849;28;20340;-76
2022/09/08 02:41:27;;;;;;;16.67;5.85;;;;;;;14.96;68.25;94242.00;5003038;28;20238;-77
2022/09/08 02:43:52;;;;;;;14.93;5.45;;;;;;;14.92;68.26;94243.78;5002971;28;20152;-77
2022/09/08 02:46:18;;;;;;;7.32;5.18;;;;;;;14.84;68.33;94255.38;5002695;28;20046;-75
2022/09/08 02:48:44;;;;;;;7.93;4.72;;;;;;;14.85;68.66;94244.28;5002858;28;20041;-77
2022/09/08 02:51:12;;;;;;;9.13;5.10;;;;;;;14.86;68.56;94247.78;5002660;28;20065;-75
2022/09/08 02:53:39;;;;;;;10.13;5.20;;;;;;;14.85;68.63;94243.50;5002873;28;20033;-75
2022/09/08 02:56:06;;;;;;;10.15;5.22;;;;;;;14.85;68.45;94246.19;5002748;28;20137;-76
2022/09/08 02:58:32;;;;;;;10.82;5.50;;;;;;;14.84;68.47;94252.69;5002867;28;20026;-76
2022/09/08 03:00:58;;;;;;;14.15;5.78;;;;;;;14.78;67.55;94254.00;5002602;28;20014;-76
2022/09/08 03:03:24;;;;;;;8.55;5.22;;;;;;;14.77;67.84;94244.38;5002912;28;20094;-75
2022/09/08 03:05:50;;;;;;;9.23;5.05;;;;;;;14.75;68.23;94255.44;5002780;28;20049;-75
2022/09/08 03:08:17;;;;;;;7.28;5.53;;;;;;;14.75;68.40;94246.59;5003948;28;20029;-77
2022/09/08 03:10:44;;;;;;;7.85;5.55;;;;;;;14.73;68.42;94244.25;5006171;28;20256;-75
2022/09/08 03:13:10;;;;;;;9.63;5.00;;;;;;;14.68;68.87;94247.16;5006403;28;20269;-76
2022/09/08 03:15:36;;;;;;;8.45;6.00;;;;;;;14.71;68.73;94246.47;5006562;28;20025;-75
2022/09/08 03:18:04;;;;;;;9.13;5.35;;;;;;;14.69;69.13;94237.97;5006490;28;20030;-75
2022/09/08 03:20:31;;;;;;;11.05;5.10;;;;;;;14.71;68.83;94243.78;5006319;28;20022;-75
2022/09/08 03:22:58;;;;;;;6.55;4.75;;;;;;;14.70;69.54;94249.50;5006568;28;20033;-76
2022/09/08 03:25:23;;;;;;;16.17;4.75;;;;;;;14.68;69.12;94254.41;5006677;28;20041;-76
2022/09/08 03:27:49;;;;;;;9.45;5.10;;;;;;;14.62;69.41;94249.25;5006374;28;20022;-76
2022/09/08 03:30:16;;;;;;;7.10;5.40;;;;;;;14.60;69.50;94256.06;5006348;28;20065;-76
2022/09/08 03:32:42;;;;;;;8.18;5.57;;;;;;;14.61;69.59;94253.03;5006096;28;20023;-76
2022/09/08 03:35:11;;;;;;;7.30;4.82;;;;;;;14.60;69.60;94258.72;5005909;28;20025;-75
2022/09/08 03:37:38;;;;;;;8.25;5.68;;;;;;;14.54;69.60;94268.06;5005913;28;20022;-75
2022/09/08 03:40:05;;;;;;;9.77;5.32;;;;;;;14.52;68.96;94264.91;5005729;28;20317;-75
2022/09/08 03:42:35;;;;;;;9.27;5.43;;;;;;;14.49;69.39;94261.00;5005992;28;20863;-75
2022/09/08 03:45:02;;;;;;;9.60;5.72;;;;;;;14.48;69.40;94258.66;5005819;28;20026;-75
2022/09/08 03:47:27;;;;;;;12.85;5.53;;;;;;;14.48;69.11;94254.06;5005556;28;20097;-76
2022/09/08 03:49:53;;;;;;;11.95;5.57;;;;;;;14.50;69.13;94256.41;5005819;28;20026;-75
2022/09/08 03:52:19;;;;;;;10.02;5.53;;;;;;;14.51;68.96;94250.72;5006072;28;20351;-75
2022/09/08 03:54:47;;;;;;;19.08;5.47;;;;;;;14.54;68.79;94251.97;5005693;28;20313;-76
2022/09/08 03:57:13;;;;;;;6.80;5.20;;;;;;;14.55;69.06;94258.88;5005689;28;20351;-76
2022/09/08 03:59:39;;;;;;;7.50;5.53;;;;;;;14.55;69.23;94259.69;5005483;28;20033;-77
2022/09/08 04:02:04;;;;;;;13.02;7.00;;;;;;;14.54;69.58;94260.78;5005504;28;20026;-77
2022/09/08 04:04:30;;;;;;;9.68;5.30;;;;;;;14.52;69.39;94259.56;5005505;28;20026;-77
2022/09/08 04:06:57;;;;;;;15.85;5.55;;;;;;;14.52;69.44;94272.97;5005415;28;20033;-77
2022/09/08 04:09:22;;;;;;;9.38;5.20;;;;;;;14.51;69.73;94264.16;5005520;28;20333;-76
2022/09/08 04:11:48;;;;;;;7.18;5.32;;;;;;;14.50;69.29;94265.25;5005138;28;20034;-76
2022/09/08 04:14:14;;;;;;;8.48;5.50;;;;;;;14.50;69.31;94269.81;5005313;28;20041;-76
2022/09/08 04:16:43;;;;;;;10.15;6.18;;;;;;;14.49;69.24;94273.59;5005226;28;20325;-76
2022/09/08 04:19:10;;;;;;;11.38;5.93;;;;;;;14.46;69.15;94272.38;5004326;28;20065;-76
2022/09/08 04:21:35;;;;;;;9.45;5.65;;;;;;;14.45;69.01;94268.13;5004631;28;20022;-76
2022/09/08 04:24:01;;;;;;;8.88;6.25;;;;;;;14.41;69.24;94278.72;5005004;28;20030;-79
2022/09/08 04:26:28;;;;;;;9.00;5.65;;;;;;;14.45;69.33;94281.53;5005139;28;20065;-78
2022/09/08 04:28:53;;;;;;;11.70;5.75;;;;;;;14.41;69.31;94280.59;5005189;28;20026;-77
2022/09/08 04:31:20;;;;;;;9.52;5.60;;;;;;;14.43;69.46;94268.47;5004862;28;20052;-75
2022/09/08 04:33:47;;;;;;;10.48;5.22;;;;;;;14.45;69.41;94265.44;5005615;28;20190;-82
2022/09/08 04:36:15;;;;;;;11.05;5.80;;;;;;;14.51;69.46;94258.78;5005479;28;20089;-84
2022/09/08 04:38:40;;;;;;;12.98;6.30;;;;;;;14.56;68.91;94263.97;5005055;28;20198;-85
2022/09/08 04:41:08;;;;;;;9.40;5.90;;;;;;;14.63;68.83;94266.09;5005095;28;20033;-84
2022/09/08 04:43:35;;;;;;;11.43;5.75;;;;;;;14.72;67.51;94263.38;5004834;28;20026;-83
2022/09/08 04:46:12;;;;;;;9.48;5.63;;;;;;;14.74;67.99;94269.19;5005810;28;20046;-92
2022/09/08 04:48:39;;;;;;;10.23;6.45;;;;;;;14.77;67.72;94268.53;5007191;28;20022;-88
2022/09/08 04:51:06;;;;;;;16.17;5.97;;;;;;;14.76;67.33;94269.66;5006761;28;20046;-88
2022/09/08 04:53:36;;;;;;;13.23;5.97;;;;;;;14.78;67.00;94264.75;5006267;28;20026;-88
2022/09/08 04:56:03;;;;;;;8.27;5.70;;;;;;;14.77;66.52;94268.53;5006296;28;20085;-90
2022/09/08 04:58:30;;;;;;;11.35;6.10;;;;;;;14.86;67.53;94274.63;5021888;28;20042;-88
2022/09/08 05:01:07;;;;;;;7.85;5.38;;;;;;;14.87;67.89;94273.47;5006384;28;20217;-90
2022/09/08 05:03:32;;;;;;;10.63;5.70;;;;;;;14.92;67.62;94275.97;5006283;28;20033;-87
2022/09/08 05:06:12;;;;;;;11.00;5.95;;;;;;;14.95;67.08;94267.25;5005058;28;20026;-88
2022/09/08 05:08:38;;;;;;;13.50;6.30;;;;;;;15.02;66.32;94280.94;5006026;28;20029;-88
2022/09/08 05:11:07;;;;;;;9.68;6.10;;;;;;;14.98;65.57;94280.03;5006000;28;20092;-89
2022/09/08 05:13:46;;;;;;;;;;;;;;;;;;;;;
2022/09/08 05:16:14;;;;;;;12.68;5.78;;;;;;;15.11;65.55;94288.13;5005568;28;20058;-79
2022/09/08 05:18:40;;;;;;;11.63;5.45;;;;;;;15.11;65.85;94286.22;5004212;28;20383;-80
2022/09/08 05:21:07;;;;;;;10.52;6.28;;;;;;;15.13;66.16;94289.34;5003871;28;20022;-79
2022/09/08 05:23:33;;;;;;;11.98;6.65;;;;;;;15.23;66.12;94298.91;5003602;28;20351;-80
2022/09/08 05:26:02;;;;;;;27.98;8.63;;;;;;;15.22;66.15;94298.13;5003776;28;20022;-80
2022/09/08 05:28:30;;;;;;;10.93;6.05;;;;;;;15.27;66.51;94294.44;5002215;28;20267;-81
2022/09/08 05:30:56;;;;;;;12.90;7.28;;;;;;;15.24;66.90;94298.56;5001419;28;20042;-81
2022/09/08 05:33:23;;;;;;;24.33;13.23;;;;;;;15.24;67.15;94303.94;5003712;28;20033;-81
2022/09/08 05:35:49;;;;;;;18.75;8.50;;;;;;;15.31;66.86;94306.09;5003601;28;20343;-80
2022/09/08 05:38:15;;;;;;;16.77;8.98;;;;;;;15.32;67.26;94307.63;5003310;28;20041;-81
2022/09/08 05:40:41;;;;;;;22.67;7.50;;;;;;;15.29;67.00;94302.94;5003220;28;20253;-80
2022/09/08 05:43:07;;;;;;;16.63;7.80;;;;;;;15.34;67.13;94299.25;5003431;28;20086;-81
2022/09/08 05:45:33;;;;;;;18.80;6.93;;;;;;;15.40;66.73;94290.66;5003740;28;20129;-80
2022/09/08 05:47:58;;;;;;;17.75;6.45;;;;;;;15.48;66.22;94301.63;5003507;28;20038;-81
2022/09/08 05:50:24;;;;;;;14.05;7.00;;;;;;;15.54;66.01;94298.41;5003684;28;20049;-82
2022/09/08 05:52:49;;;;;;;21.85;7.30;;;;;;;15.53;65.63;94306.78;5003388;28;20034;-81
2022/09/08 05:55:15;;;;;;;16.00;7.05;;;;;;;15.59;65.73;94300.06;5003448;28;20065;-81
2022/09/08 05:57:40;;;;;;;11.18;7.05;;;;;;;15.67;65.52;94299.19;5003588;28;20037;-80
2022/09/08 06:00:08;;;;;;;38.13;8.30;;;;;;;15.70;65.25;94300.44;5003332;28;20288;-80
2022/09/08 06:02:34;;;;;;;18.90;7.80;;;;;;;15.73;65.19;94303.25;5003330;28;20256;-81
2022/09/08 06:04:59;;;;;;;15.60;8.00;;;;;;;15.77;64.92;94301.50;5003590;28;20049;-81
2022/09/08 06:07:25;;;;;;;40.67;8.88;;;;;;;15.86;64.60;94289.84;5003566;28;20018;-81
2022/09/08 06:09:51;;;;;;;12.40;7.13;;;;;;;15.87;64.31;94307.53;5003605;28;20220;-81
2022/09/08 06:12:17;;;;;;;26.50;9.00;;;;;;;15.99;64.11;94311.00;5003367;28;20088;-81
2022/09/08 06:14:42;;;;;;;16.85;8.18;;;;;;;16.06;63.97;94305.09;5003218;28;20038;-81
2022/09/08 06:17:08;;;;;;;17.33;8.80;;;;;;;16.09;63.96;94309.00;5003428;28;20212;-81
2022/09/08 06:19:34;;;;;;;23.67;8.60;;;;;;;16.14;64.03;94314.16;5003230;28;20325;-80
2022/09/08 06:21:59;;;;;;;19.00;7.60;;;;;;;16.22;63.31;94311.34;5003307;28;20133;-81
2022/09/08 06:24:25;;;;;;;19.33;7.82;;;;;;;16.25;63.13;94318.75;5003248;28;20022;-81
2022/09/08 06:27:00;;;;;;;17.75;7.72;;;;;;;16.30;62.96;94317.72;5003559;28;20256;-81
2022/09/08 06:30:01;;;;;;;23.48;7.53;;;;;;;16.43;62.67;94313.91;5003090;28;20396;-81
2022/09/08 06:32:41;;;;;;;20.23;8.02;;;;;;;16.50;62.97;94315.25;4994446;28;20042;-81
2022/09/08 06:35:17;;;;;;;18.10;7.10;;;;;;;16.55;61.75;94318.50;5003159;28;20057;-81
2022/09/08 06:37:48;;;;;;;18.50;7.93;;;;;;;16.57;61.79;94313.56;5003387;28;20098;-81
2022/09/08 06:40:32;;;;;;;16.63;8.40;;;;;;;16.62;62.14;94318.69;5002929;28;20030;-80
2022/09/08 06:43:16;;;;;;;15.68;8.05;;;;;;;16.65;62.02;94328.78;5003811;28;20033;-81
2022/09/08 06:45:48;;;;;;;12.00;8.10;;;;;;;16.75;61.51;94332.13;5006961;28;20026;-81
2022/09/08 06:48:26;;;;;;;18.25;8.63;;;;;;;16.79;61.84;94335.69;5007272;28;20022;-81
2022/09/08 06:51:16;;;;;;;14.30;7.97;;;;;;;16.84;61.06;94319.34;5007413;28;20130;-81
2022/09/08 06:53:47;;;;;;;15.23;7.20;;;;;;;16.91;60.52;94322.22;5006843;28;20310;-81
2022/09/08 06:56:34;;;;;;;16.87;8.47;;;;;;;17.02;59.63;94336.00;5006978;28;20026;-80
2022/09/08 06:59:21;;;;;;;14.05;7.88;;;;;;;17.14;59.49;94333.28;5006771;28;20288;-80
2022/09/08 07:02:12;;;;;;;15.60;7.78;;;;;;;17.16;59.30;94344.50;5006848;28;20080;-80
2022/09/08 07:04:59;;;;;;;11.43;7.30;;;;;;;17.29;59.17;94344.44;5006709;28;20221;-81
2022/09/08 07:07:45;;;;;;;13.27;7.25;;;;;;;17.42;58.01;94343.25;5006792;28;20026;-81
2022/09/08 07:10:23;;;;;;;11.63;6.50;;;;;;;17.59;57.37;94347.56;5006681;28;20257;-81
2022/09/08 07:12:52;;;;;;;14.90;6.82;;;;;;;17.62;56.85;94347.63;5006617;28;20033;-81
2022/09/08 07:15:25;;;;;;;13.82;6.38;;;;;;;17.72;56.50;94338.25;5006614;28;20033;-81
2022/09/08 07:18:13;;;;;;;18.63;7.95;;;;;;;17.96;55.71;94344.66;5006617;28;20066;-81
2022/09/08 07:20:39;;;;;;;13.32;6.43;;;;;;;18.06;54.50;94344.13;5006273;28;20033;-80
2022/09/08 07:23:16;;;;;;;16.40;6.35;;;;;;;18.24;54.27;94350.75;5006394;28;20022;-81
2022/09/08 07:26:04;;;;;;;15.77;6.47;;;;;;;18.32;55.90;94354.41;5006566;28;20090;-80
2022/09/08 07:28:39;;;;;;;12.48;5.72;;;;;;;18.48;55.28;94346.28;5006275;28;20026;-82
2022/09/08 07:31:05;;;;;;;13.68;5.22;;;;;;;18.64;54.05;94340.81;5006444;28;20026;-82
2022/09/08 07:33:41;;;;;;;11.90;5.47;;;;;;;18.84;53.62;94341.69;5006381;28;20336;-81
2022/09/08 07:36:40;;;;;;;13.82;6.03;;;;;;;19.08;53.38;94343.34;5006211;28;20279;-82
2022/09/08 07:39:20;;;;;;;8.55;5.50;;;;;;;19.27;51.84;94349.88;5006141;28;20031;-81
2022/09/08 07:41:59;;;;;;;14.52;5.00;;;;;;;19.34;52.85;94337.28;5021328;28;20036;-80
2022/09/08 07:44:25;;;;;;;8.18;5.57;;;;;;;19.50;52.75;94336.41;5006367;28;20210;-81
2022/09/08 07:47:16;;;;;;;13.88;5.30;;;;;;;19.71;51.51;94347.66;5006255;28;20255;-81
2022/09/08 07:49:53;;;;;;;6.43;5.05;;;;;;;19.73;50.99;94344.59;5006284;28;20030;-81
2022/09/08 07:52:32;;;;;;;11.98;4.95;;;;;;;19.83;52.34;94342.06;5006019;28;20026;-80
2022/09/08 07:54:57;;;;;;;15.98;5.55;;;;;;;19.96;51.23;94339.19;5005758;28;20073;-82
2022/09/08 07:57:36;;;;;;;12.02;5.45;;;;;;;20.08;51.51;94339.00;5005965;28;20030;-82
2022/09/08 08:00:18;;;;;;;16.27;4.57;;;;;;;20.20;50.79;94333.41;5005597;28;20321;-81
2022/09/08 08:03:08;;;;;;;12.43;4.80;;;;;;;20.31;50.18;94330.09;5006090;28;20026;-80
2022/09/08 08:06:01;;;;;;;13.05;4.88;;;;;;;20.40;49.71;94333.34;5005682;28;20309;-81
2022/09/08 08:08:51;;;;;;;11.60;4.78;;;;;;;20.42;50.07;94331.81;5005641;28;20026;-81
2022/09/08 08:11:17;;;;;;;13.57;6.47;;;;;;;20.49;49.74;94331.13;5005682;28;20028;-81
2022/09/08 08:14:08;;;;;;;9.30;5.80;;;;;;;20.54;48.57;94340.88;5005680;28;20022;-80
2022/09/08 08:16:51;;;;;;;8.88;4.68;;;;;;;20.62;48.24;94335.22;5005786;28;20052;-81
2022/09/08 08:19:34;;;;;;;14.55;4.68;;;;;;;20.74;49.68;94341.56;5005258;28;20040;-82
2022/09/08 08:22:23;;;;;;;11.57;4.57;;;;;;;20.87;49.63;94339.44;5005465;28;20026;-81
2022/09/08 08:25:11;;;;;;;14.60;6.05;;;;;;;21.03;47.40;94332.69;4998321;28;20128;-81
2022/09/08 08:27:51;;;;;;;11.52;5.32;;;;;;;21.16;46.46;94337.88;5005482;28;20018;-81
2022/09/08 08:30:19;;;;;;;15.93;5.20;;;;;;;21.26;46.67;94345.34;5005335;28;20018;-81
2022/09/08 08:32:54;;;;;;;10.18;4.85;;;;;;;21.34;46.59;94336.16;5005015;28;20042;-81
2022/09/08 08:35:27;;;;;;;9.00;4.65;;;;;;;21.38;46.60;94331.53;5005276;28;20046;-81
2022/09/08 08:37:54;;;;;;;12.27;4.85;;;;;;;21.56;46.35;94331.00;5005196;28;20068;-81
2022/09/08 08:40:35;;;;;;;13.32;4.50;;;;;;;21.79;46.37;94328.91;5004882;28;20041;-81
2022/09/08 08:43:38;;;;;;;13.25;4.78;;;;;;;21.99;45.97;94318.63;5005282;28;20027;-81
2022/09/08 08:46:10;;;;;;;;;;;;;;;22.21;45.56;94314.16;5005357;28;20053;-81
2022/09/08 08:49:10;;;;;;;9.52;4.45;;;;;;;22.29;44.41;94306.88;5005061;28;19948;-82
2022/09/08 08:51:56;;;;;;;13.07;4.28;;;;;;;22.30;45.34;94307.66;5004974;28;20030;-80
2022/09/08 08:54:49;;;;;;;11.90;5.00;;;;;;;22.37;44.95;94305.78;5005032;28;20077;-80
2022/09/08 08:58:00;;;;;;;11.38;4.60;;;;;;;22.55;45.66;94300.47;5004715;28;20080;-80
2022/09/08 09:00:43;;;;;;;14.95;5.40;;;;;;;22.63;43.42;94291.19;5004663;28;20030;-81
2022/09/08 09:03:39;;;;;;;9.85;5.00;;;;;;;22.59;43.38;94290.41;5004308;28;20026;-81
2022/09/08 09:06:29;;;;;;;10.80;4.63;;;;;;;22.56;43.59;94290.38;4978370;28;20231;-80
2022/09/08 09:09:20;;;;;;;10.75;4.38;;;;;;;22.45;44.05;94274.00;5004554;28;20026;-81
2022/09/08 09:12:13;;;;;;;8.07;4.55;;;;;;;22.48;44.41;94281.38;5004689;28;20038;-80
2022/09/08 09:14:57;;;;;;;9.50;4.72;;;;;;;22.56;44.25;94269.41;5019763;28;20293;-81
2022/09/08 09:17:49;;;;;;;23.45;4.68;;;;;;;22.68;44.24;94271.03;5004578;28;20045;-81
2022/09/08 09:20:39;;;;;;;8.68;4.32;;;;;;;22.73;42.93;94262.50;5004439;28;20034;-82
2022/09/08 09:23:04;;;;;;;13.13;4.47;;;;;;;22.76;43.41;94258.28;5004364;28;20036;-82
2022/09/08 09:25:58;;;;;;;15.32;4.80;;;;;;;22.81;43.47;94252.44;5004275;28;20034;-81
2022/09/08 09:28:41;;;;;;;6.63;4.35;;;;;;;22.93;43.51;94256.78;5004111;28;20030;-82
2022/09/08 09:31:44;;;;;;;19.13;5.57;;;;;;;22.99;43.48;94239.72;5004285;28;20029;-82
2022/09/08 09:34:40;;;;;;;10.68;4.43;;;;;;;23.07;42.38;94234.34;5004162;28;20034;-82
2022/09/08 09:37:27;;;;;;;8.95;3.67;;;;;;;23.02;42.92;94239.00;5004203;28;20042;-81
2022/09/08 09:40:06;;;;;;;11.30;5.10;;;;;;;23.02;42.80;94230.84;5003954;28;20325;-81
2022/09/08 09:42:56;;;;;;;6.68;4.25;;;;;;;23.13;42.62;94240.97;5004209;28;20033;-81
2022/09/08 09:45:24;;;;;;;14.80;4.80;;;;;;;23.06;42.43;94233.56;5003969;28;20088;-81
2022/09/08 09:48:19;;;;;;;14.15;4.25;;;;;;;22.96;42.58;94234.25;5003412;28;20349;-82
2022/09/08 09:51:21;;;;;;;14.50;3.97;;;;;;;23.06;42.42;94227.34;4998337;28;20363;-80
2022/09/08 09:54:14;;;;;;;19.80;5.73;;;;;;;23.23;43.23;94234.78;5003687;28;20026;-80
2022/09/08 09:56:51;;;;;;;12.98;4.82;;;;;;;23.39;43.01;94216.16;5003698;28;20101;-81
2022/09/08 09:59:20;;;;;;;12.60;4.35;;;;;;;23.56;42.10;94206.47;5003560;28;20030;-81
2022/09/08 10:01:45;;;;;;;15.55;4.68;;;;;;;23.60;41.73;94209.97;5003639;28;20030;-81
2022/09/08 10:04:32;;;;;;;10.20;4.10;;;;;;;23.71;41.67;94203.75;5018534;28;20030;-81
2022/09/08 10:07:12;;;;;;;11.52;4.53;;;;;;;23.67;40.96;94206.50;5003473;28;20030;-80
2022/09/08 10:10:09;;;;;;;6.45;3.55;;;;;;;23.68;41.39;94197.16;5003602;28;20046;-80
2022/09/08 10:12:49;;;;;;;6.25;3.97;;;;;;;23.77;41.15;94188.63;5003301;28;20232;-81
2022/09/08 10:15:33;;;;;;;14.00;3.65;;;;;;;23.80;40.70;94188.63;5003485;28;20038;-81
2022/09/08 10:18:13;;;;;;;10.13;4.22;;;;;;;23.98;42.62;94185.91;5003528;28;20221;-80
2022/09/08 10:21:06;;;;;;;21.13;4.53;;;;;;;24.14;41.38;94180.03;5003626;28;20198;-81
2022/09/08 10:24:14;;;;;;;15.13;5.43;;;;;;;24.22;41.23;94178.06;5003287;28;20033;-81
2022/09/08 10:26:48;;;;;;;7.88;4.20;;;;;;;24.33;42.10;94175.34;4989787;28;20267;-81
2022/09/08 10:29:17;;;;;;;13.30;4.82;;;;;;;24.49;41.17;94166.72;5003187;28;20099;-81
2022/09/08 10:31:54;;;;;;;11.13;4.10;;;;;;;24.57;40.05;94160.09;5003329;28;20026;-81
2022/09/08 10:34:47;;;;;;;6.65;4.43;;;;;;;24.53;40.25;94159.34;5003376;28;20022;-81
2022/09/08 10:37:41;;;;;;;;;;;;;;;24.61;40.39;94164.38;5003530;28;20106;-81
2022/09/08 10:40:36;;;;;;;20.40;5.18;;;;;;;24.77;40.94;94160.38;5001354;28;19982;-80
2022/09/08 10:43:28;;;;;;;10.40;4.28;;;;;;;24.88;39.55;94154.91;5003111;28;20316;-82
2022/09/08 10:46:22;;;;;;;12.57;4.50;;;;;;;24.88;39.53;94150.22;5003082;28;20029;-83
2022/09/08 10:48:53;;;;;;;8.77;5.15;;;;;;;24.92;38.77;94153.72;5018257;28;20064;-81
2022/09/08 10:51:55;;;;;;;12.98;3.97;;;;;;;24.94;38.49;94148.63;5002942;28;20026;-80
2022/09/08 10:54:34;;;;;;;15.65;4.53;;;;;;;25.01;38.91;94145.88;5001932;28;20037;-81
2022/09/08 10:57:00;;;;;;;9.95;4.03;;;;;;;25.12;40.02;94148.53;5003112;28;20036;-81
2022/09/08 10:59:50;;;;;;;6.45;4.15;;;;;;;25.29;39.28;94152.34;5002658;28;20030;-80
2022/09/08 11:02:32;;;;;;;14.65;3.92;;;;;;;25.44;39.32;94144.81;5002927;28;20030;-81
2022/09/08 11:05:08;;;;;;;7.40;4.57;;;;;;;25.56;38.60;94149.78;5002654;28;20026;-81
2022/09/08 11:07:55;;;;;;;5.30;3.65;;;;;;;25.63;38.30;94138.84;5002967;28;20033;-81
2022/09/08 11:10:42;;;;;;;6.80;3.90;;;;;;;25.62;38.06;94131.84;5003105;28;20030;-81
2022/09/08 11:13:31;;;;;;;12.95;4.00;;;;;;;25.58;39.06;94128.34;5002909;28;20316;-81
2022/09/08 11:16:49;;;;;;;16.27;3.95;;;;;;;25.83;38.29;94141.78;5002930;28;20045;-79
2022/09/08 11:19:51;;;;;;;15.48;4.78;;;;;;;26.05;39.45;94129.91;4983851;28;20109;-81
2022/09/08 11:22:34;;;;;;;7.20;4.05;;;;;;;26.22;38.06;94127.00;4962209;29;20034;-81
2022/09/08 11:25:36;;;;;;;8.60;3.92;;;;;;;26.42;37.30;94137.34;4999903;28;20060;-80
2022/09/08 11:28:32;;;;;;;8.15;3.78;;;;;;;26.43;36.42;94122.47;5002795;28;20045;-81
2022/09/08 11:31:23;;;;;;;10.10;4.18;;;;;;;26.54;36.71;94134.06;5006524;28;20093;-81
2022/09/08 11:34:29;;;;;;;8.95;3.80;;;;;;;26.68;36.63;94135.84;5006343;28;20022;-81
2022/09/08 11:37:03;;;;;;;9.80;3.85;;;;;;;26.82;36.68;94132.94;5006548;28;20035;-81
2022/09/08 11:39:37;;;;;;;9.70;4.18;;;;;;;26.96;36.14;94133.94;5006257;28;20026;-81
2022/09/08 11:42:50;;;;;;;8.55;3.95;;;;;;;26.87;35.48;94137.19;5006139;28;20030;-82
2022/09/08 11:45:52;;;;;;;7.55;3.55;;;;;;;26.90;36.26;94138.31;5002295;28;20034;-82
2022/09/08 11:48:23;;;;;;;7.78;3.85;;;;;;;27.04;36.52;94129.16;4995322;28;20358;-81
2022/09/08 11:51:11;;;;;;;13.23;4.47;;;;;;;27.12;36.15;94133.34;5006008;28;20018;-81
2022/09/08 11:53:57;;;;;;;10.57;3.88;;;;;;;27.29;35.54;94135.06;5021161;28;20022;-81
2022/09/08 11:56:52;;;;;;;11.50;3.50;;;;;;;27.51;36.18;94132.78;4986020;28;20329;-81
2022/09/08 11:59:26;;;;;;;10.52;3.97;;;;;;;27.74;34.99;94123.81;4970137;28;20043;-81
2022/09/08 12:02:16;;;;;;;14.70;4.53;;;;;;;27.90;34.28;94125.91;5006136;28;20317;-81
2022/09/08 12:04:45;;;;;;;7.15;3.80;;;;;;;28.03;33.82;94123.34;5005931;28;20012;-81
2022/09/08 12:07:47;;;;;;;14.35;5.25;;;;;;;28.18;33.96;94123.84;5005663;28;20026;-80
2022/09/08 12:10:44;;;;;;;13.65;3.92;;;;;;;28.33;33.21;94124.34;5006143;28;20312;-81
2022/09/08 12:13:22;;;;;;;11.35;3.97;;;;;;;28.32;33.41;94118.09;5005726;28;20022;-81